createdAt,value
2019-05-19T00:00:22.545Z,12.51
2019-05-19T00:02:55.139Z,12.48
2019-05-19T00:05:28.210Z,12.46
2019-05-19T00:08:00.888Z,12.46
2019-05-19T00:10:33.569Z,12.42
2019-05-19T00:13:05.833Z,12.42
2019-05-19T00:15:38.069Z,12.42
2019-05-19T00:18:10.687Z,12.43
2019-05-19T00:20:43.359Z,12.52
2019-05-19T00:23:16.048Z,12.56
2019-05-19T00:25:48.726Z,12.62
2019-05-19T00:28:21.402Z,12.59
2019-05-19T00:30:54.189Z,12.58
2019-05-19T00:33:27.369Z,12.62
2019-05-19T00:36:00.054Z,12.61
2019-05-19T00:38:32.737Z,12.56
2019-05-19T00:41:05.509Z,12.61
2019-05-19T00:43:38.706Z,12.64
2019-05-19T00:46:11.385Z,12.57
2019-05-19T00:48:44.272Z,12.50
2019-05-19T00:51:17.036Z,12.49
2019-05-19T00:53:49.739Z,12.58
2019-05-19T00:56:23.336Z,12.54
2019-05-19T00:58:59.282Z,12.54
2019-05-19T01:01:32.065Z,12.52
2019-05-19T01:04:04.763Z,12.51
2019-05-19T01:06:36.980Z,12.50
2019-05-19T01:09:09.703Z,12.52
2019-05-19T01:11:42.271Z,12.57
2019-05-19T01:14:15.447Z,12.62
2019-05-19T01:16:48.553Z,12.65
2019-05-19T01:19:21.235Z,12.67
2019-05-19T01:21:54.927Z,12.66
2019-05-19T01:24:27.817Z,12.59
2019-05-19T01:27:00.359Z,12.52
2019-05-19T01:29:33.180Z,12.52
2019-05-19T01:32:06.065Z,12.51
2019-05-19T01:34:38.738Z,12.46
2019-05-19T01:37:10.969Z,12.46
2019-05-19T01:39:43.582Z,12.43
2019-05-19T01:42:16.165Z,12.45
2019-05-19T01:44:48.784Z,12.46
2019-05-19T01:47:22.747Z,12.41
2019-05-19T01:50:15.068Z,12.38
2019-05-19T01:52:30.664Z,12.34
2019-05-19T01:55:03.343Z,12.20
2019-05-19T01:57:36.124Z,12.24
2019-05-19T02:00:11.069Z,12.34
2019-05-19T02:02:43.740Z,12.43
2019-05-19T02:05:17.132Z,12.48
2019-05-19T02:07:49.924Z,12.50
2019-05-19T02:10:23.314Z,12.57
2019-05-19T02:12:55.935Z,12.68
2019-05-19T02:15:28.677Z,12.74
2019-05-19T02:18:01.357Z,12.76
2019-05-19T02:20:34.120Z,12.79
2019-05-19T02:23:06.809Z,12.54
2019-05-19T02:25:39.491Z,12.47
2019-05-19T02:28:12.188Z,12.35
2019-05-19T02:30:44.858Z,12.29
2019-05-19T02:33:17.091Z,12.22
2019-05-19T02:35:49.665Z,12.19
2019-05-19T02:38:22.379Z,12.16
2019-05-19T02:40:58.334Z,12.09
2019-05-19T02:43:31.422Z,12.04
2019-05-19T02:46:05.638Z,12.01
2019-05-19T02:48:40.560Z,11.95
2019-05-19T02:51:15.215Z,11.92
2019-05-19T02:53:48.277Z,11.92
2019-05-19T02:56:22.793Z,11.93
2019-05-19T02:58:57.119Z,11.84
2019-05-19T03:01:29.789Z,11.86
2019-05-19T03:04:02.374Z,12.02
2019-05-19T03:06:35.059Z,12.10
2019-05-19T03:09:07.739Z,12.10
2019-05-19T03:11:40.521Z,12.14
2019-05-19T03:14:13.200Z,12.16
2019-05-19T03:16:45.870Z,12.32
2019-05-19T03:19:18.568Z,12.34
2019-05-19T03:21:51.245Z,12.43
2019-05-19T03:24:24.427Z,12.64
2019-05-19T03:26:57.104Z,12.70
2019-05-19T03:29:31.322Z,12.80
2019-05-19T03:32:11.698Z,12.92
2019-05-19T03:34:39.858Z,12.94
2019-05-19T03:37:12.531Z,13.00
2019-05-19T03:39:45.207Z,13.02
2019-05-19T03:42:17.995Z,12.95
2019-05-19T03:44:50.666Z,12.70
2019-05-19T03:47:24.473Z,12.59
2019-05-19T03:49:57.152Z,12.65
2019-05-19T03:52:29.940Z,12.75
2019-05-19T03:55:03.841Z,12.83
2019-05-19T03:57:36.521Z,12.92
2019-05-19T04:00:10.923Z,13.05
2019-05-19T04:02:43.733Z,13.20
2019-05-19T04:05:16.511Z,13.36
2019-05-19T04:07:49.183Z,13.48
2019-05-19T04:10:22.071Z,13.60
2019-05-19T04:12:55.071Z,13.72
2019-05-19T04:15:28.040Z,13.83
2019-05-19T04:18:00.725Z,13.90
2019-05-19T04:20:34.164Z,13.98
2019-05-19T04:23:06.909Z,14.07
2019-05-19T04:25:40.609Z,14.15
2019-05-19T04:28:13.897Z,14.23
2019-05-19T04:30:46.773Z,14.31
2019-05-19T04:36:20.813Z,14.32
2019-05-19T04:38:53.482Z,14.30
2019-05-19T04:41:26.246Z,14.40
2019-05-19T04:43:58.942Z,14.52
2019-05-19T04:50:13.847Z,14.67
2019-05-19T04:52:56.966Z,14.72
2019-05-19T04:55:30.459Z,14.78
2019-05-19T04:58:03.142Z,14.95
2019-05-19T05:00:35.814Z,15.10
2019-05-19T05:03:08.075Z,15.01
2019-05-19T05:05:40.763Z,15.00
2019-05-19T05:08:29.033Z,15.10
2019-05-19T05:10:48.074Z,15.12
2019-05-19T05:13:20.742Z,15.24
2019-05-19T05:15:53.323Z,15.24
2019-05-19T05:18:27.674Z,15.27
2019-05-19T05:21:00.530Z,15.30
2019-05-19T05:23:33.311Z,15.45
2019-05-19T05:26:05.989Z,15.60
2019-05-19T05:28:38.431Z,15.65
2019-05-19T05:31:15.337Z,15.85
2019-05-19T05:33:46.887Z,16.13
2019-05-19T05:36:19.467Z,16.26
2019-05-19T05:38:52.202Z,16.25
2019-05-19T05:41:24.820Z,16.28
2019-05-19T05:43:57.609Z,16.35
2019-05-19T05:46:30.710Z,16.37
2019-05-19T05:49:02.968Z,16.50
2019-05-19T05:51:35.751Z,16.56
2019-05-19T05:54:09.344Z,16.70
2019-05-19T05:56:42.126Z,16.69
2019-05-19T05:59:14.801Z,16.69
2019-05-19T06:01:47.738Z,16.80
2019-05-19T06:04:20.381Z,16.88
2019-05-19T06:06:53.358Z,16.92
2019-05-19T06:09:26.046Z,16.93
2019-05-19T06:11:59.081Z,16.92
2019-05-19T06:14:32.414Z,16.83
2019-05-19T06:17:05.426Z,16.83
2019-05-19T06:19:38.090Z,16.86
2019-05-19T06:22:10.863Z,16.90
2019-05-19T06:24:43.542Z,16.90
2019-05-19T06:27:16.330Z,16.89
2019-05-19T06:29:49.624Z,16.97
2019-05-19T06:32:41.963Z,17.03
2019-05-19T06:35:15.391Z,17.23
2019-05-19T06:37:48.450Z,17.61
2019-05-19T06:40:22.655Z,18.15
2019-05-19T06:42:55.345Z,18.40
2019-05-19T06:45:28.024Z,18.43
2019-05-19T06:48:00.715Z,18.32
2019-05-19T06:50:33.382Z,18.32
2019-05-19T06:53:13.885Z,18.43
2019-05-19T06:55:39.834Z,18.46
2019-05-19T06:58:12.402Z,18.46
2019-05-19T07:00:45.634Z,18.39
2019-05-19T07:03:18.216Z,18.49
2019-05-19T07:05:50.889Z,18.48
2019-05-19T07:08:23.575Z,18.33
2019-05-19T07:10:56.186Z,17.81
2019-05-19T07:13:28.824Z,17.21
2019-05-19T07:16:01.144Z,17.01
2019-05-19T07:18:33.773Z,16.87
2019-05-19T07:21:06.440Z,16.42
2019-05-19T07:23:39.123Z,16.29
2019-05-19T07:26:12.022Z,16.14
2019-05-19T07:28:44.686Z,15.98
2019-05-19T07:31:17.374Z,15.90
2019-05-19T07:33:50.104Z,15.91
2019-05-19T07:36:24.556Z,15.94
2019-05-19T07:38:59.539Z,15.84
2019-05-19T07:41:32.499Z,15.96
2019-05-19T07:44:05.161Z,15.90
2019-05-19T07:46:39.278Z,15.68
2019-05-19T07:49:11.955Z,15.49
2019-05-19T07:51:44.690Z,15.47
2019-05-19T07:54:17.529Z,15.18
2019-05-19T07:56:51.854Z,15.15
2019-05-19T07:59:24.414Z,15.15
2019-05-19T08:01:56.073Z,15.22
2019-05-19T08:04:28.751Z,15.26
2019-05-19T08:07:01.435Z,15.31
2019-05-19T08:09:34.116Z,15.35
2019-05-19T08:12:06.900Z,15.47
2019-05-19T08:14:40.290Z,15.54
2019-05-19T08:17:13.175Z,15.56
2019-05-19T08:19:48.652Z,15.63
2019-05-19T08:22:24.433Z,15.68
2019-05-19T08:24:57.043Z,15.77
2019-05-19T08:47:15.443Z,20.37
2019-05-19T08:49:48.103Z,21.09
2019-05-19T08:52:20.786Z,21.24
2019-05-19T08:54:53.459Z,21.17
2019-05-19T08:57:25.767Z,20.85
2019-05-19T08:59:58.006Z,21.30
2019-05-19T09:02:30.681Z,21.39
2019-05-19T09:05:03.358Z,21.63
2019-05-19T09:07:36.032Z,22.27
2019-05-19T09:10:13.419Z,22.45
2019-05-19T09:12:46.112Z,22.17
2019-05-19T09:15:18.797Z,22.75
2019-05-19T09:17:54.095Z,23.02
2019-05-19T09:20:25.326Z,23.34
2019-05-19T09:22:58.056Z,23.48
2019-05-19T09:25:30.731Z,23.52
2019-05-19T09:28:03.405Z,23.30
2019-05-19T09:30:36.089Z,23.67
2019-05-19T09:33:08.768Z,23.44
2019-05-19T09:35:41.337Z,23.54
2019-05-19T09:38:14.081Z,23.70
2019-05-19T09:40:47.007Z,23.47
2019-05-19T09:43:19.685Z,23.72
2019-05-19T09:45:52.363Z,23.73
2019-05-19T09:48:25.050Z,23.50
2019-05-19T09:50:57.718Z,23.52
2019-05-19T09:53:30.467Z,23.52
2019-05-19T09:56:02.982Z,23.80
2019-05-19T09:58:35.662Z,24.13
2019-05-19T10:01:09.266Z,24.17
2019-05-19T10:03:41.947Z,24.59
2019-05-19T10:06:14.615Z,24.57
2019-05-19T10:08:51.127Z,24.91
2019-05-19T10:11:32.842Z,24.06
2019-05-19T10:14:05.570Z,24.43
2019-05-19T10:16:38.262Z,24.89
2019-05-19T10:19:11.023Z,25.18
2019-05-19T10:21:44.821Z,25.71
2019-05-19T10:24:17.509Z,25.00
2019-05-19T10:26:50.179Z,24.25
2019-05-19T10:29:22.864Z,24.06
2019-05-19T10:31:55.594Z,23.80
2019-05-19T10:34:28.226Z,23.59
2019-05-19T10:37:00.485Z,23.66
2019-05-19T10:39:33.174Z,23.71
2019-05-19T10:42:05.853Z,24.10
2019-05-19T10:44:38.522Z,25.03
2019-05-19T10:47:11.105Z,25.51
2019-05-19T10:49:43.782Z,25.94
2019-05-19T10:52:16.455Z,25.99
2019-05-19T10:54:49.016Z,26.28
2019-05-19T10:57:21.624Z,26.41
2019-05-19T10:59:54.301Z,26.51
2019-05-19T11:02:26.982Z,26.47
2019-05-19T11:04:59.656Z,26.91
2019-05-19T11:07:32.344Z,26.12
2019-05-19T11:10:07.067Z,26.00
2019-05-19T11:12:39.731Z,25.70
2019-05-19T11:15:13.229Z,25.93
2019-05-19T11:17:45.913Z,25.69
2019-05-19T11:20:18.696Z,25.10
2019-05-19T11:22:51.376Z,25.47
2019-05-19T11:25:33.465Z,26.05
2019-05-19T11:27:59.499Z,26.53
2019-05-19T11:30:32.490Z,26.78
2019-05-19T11:33:05.064Z,27.18
2019-05-19T11:35:37.322Z,26.76
2019-05-19T11:38:10.016Z,27.24
2019-05-19T11:40:42.688Z,26.94
2019-05-19T11:43:15.268Z,27.35
2019-05-19T11:45:47.946Z,27.75
2019-05-19T11:48:20.622Z,27.86
2019-05-19T11:50:53.305Z,27.94
2019-05-19T11:53:25.881Z,27.98
2019-05-19T11:56:06.377Z,27.87
2019-05-19T11:58:32.854Z,28.21
2019-05-19T12:01:05.481Z,28.30
2019-05-19T12:03:38.138Z,28.40
2019-05-19T12:06:12.356Z,28.34
2019-05-19T12:08:45.033Z,28.93
2019-05-19T12:11:17.706Z,29.12
2019-05-19T12:13:50.386Z,29.71
2019-05-19T12:16:23.071Z,29.83
2019-05-19T12:18:57.611Z,29.45
2019-05-19T12:21:29.954Z,29.78
2019-05-19T12:24:03.566Z,29.25
2019-05-19T12:26:36.273Z,29.85
2019-05-19T12:29:08.925Z,30.36
2019-05-19T12:31:41.757Z,30.19
2019-05-19T12:34:14.282Z,30.55
2019-05-19T12:36:47.977Z,31.00
2019-05-19T12:39:20.870Z,30.98
2019-05-19T12:41:53.550Z,30.82
2019-05-19T12:44:26.221Z,31.17
2019-05-19T12:46:58.899Z,31.40
2019-05-19T12:49:31.584Z,31.21
2019-05-19T12:52:04.271Z,31.25
2019-05-19T12:54:36.798Z,29.17
2019-05-19T12:57:09.413Z,28.49
2019-05-19T12:59:42.099Z,27.89
2019-05-19T13:02:14.778Z,27.77
2019-05-19T13:05:03.558Z,27.80
2019-05-19T13:07:21.771Z,27.80
2019-05-19T13:09:54.664Z,27.79
2019-05-19T13:12:27.370Z,27.55
2019-05-19T13:14:59.913Z,27.60
2019-05-19T13:17:32.593Z,27.28
2019-05-19T13:20:05.379Z,26.81
2019-05-19T13:22:38.130Z,26.50
2019-05-19T13:25:10.733Z,26.24
2019-05-19T13:27:43.714Z,26.39
2019-05-19T13:30:16.296Z,26.53
2019-05-19T13:32:48.976Z,26.23
2019-05-19T13:35:22.054Z,26.33
2019-05-19T13:37:55.050Z,26.27
2019-05-19T13:40:27.621Z,26.12
2019-05-19T13:42:59.279Z,26.14
2019-05-19T13:45:31.957Z,26.01
2019-05-19T13:48:04.643Z,26.08
2019-05-19T13:50:37.218Z,25.96
2019-05-19T13:53:09.894Z,25.89
2019-05-19T13:55:42.883Z,26.08
2019-05-19T13:58:15.139Z,26.22
2019-05-19T14:00:47.722Z,26.11
2019-05-19T14:03:20.406Z,26.25
2019-05-19T14:05:53.081Z,26.17
2019-05-19T14:08:25.826Z,26.20
2019-05-19T14:10:58.411Z,26.10
2019-05-19T14:13:32.552Z,26.16
2019-05-19T14:16:05.135Z,25.99
2019-05-19T14:18:37.930Z,26.00
2019-05-19T14:21:10.498Z,26.00
2019-05-19T14:23:43.175Z,26.60
2019-05-19T14:26:15.847Z,26.60
2019-05-19T14:28:48.100Z,27.21
2019-05-19T14:31:21.956Z,27.52
2019-05-19T14:33:54.182Z,27.72
2019-05-19T14:36:26.404Z,28.27
2019-05-19T14:39:05.431Z,28.14
2019-05-19T14:41:37.964Z,28.39
2019-05-19T14:44:10.654Z,28.54
2019-05-19T14:46:43.217Z,28.46
2019-05-19T14:49:15.895Z,29.30
2019-05-19T14:51:48.470Z,29.49
2019-05-19T14:54:21.161Z,30.35
2019-05-19T14:56:53.744Z,31.14
2019-05-19T14:59:26.412Z,31.97
2019-05-19T15:01:59.096Z,30.90
2019-05-19T15:04:31.769Z,30.19
2019-05-19T15:07:03.989Z,29.05
2019-05-19T15:09:36.614Z,30.28
2019-05-19T15:12:09.248Z,31.11
2019-05-19T15:14:41.866Z,31.64
2019-05-19T15:17:14.451Z,32.38
2019-05-19T15:19:47.451Z,31.66
2019-05-19T15:22:20.014Z,32.68
2019-05-19T15:24:52.700Z,32.92
2019-05-19T15:27:25.370Z,32.24
2019-05-19T15:30:11.880Z,32.70
2019-05-19T15:32:32.264Z,34.00
2019-05-19T15:35:06.788Z,33.10
2019-05-19T15:37:40.400Z,33.82
2019-05-19T15:40:13.581Z,33.01
2019-05-19T15:42:46.265Z,33.11
2019-05-19T15:45:19.046Z,32.64
2019-05-19T15:47:51.622Z,31.62
2019-05-19T15:50:24.085Z,30.67
2019-05-19T15:52:56.669Z,29.81
2019-05-19T15:55:29.345Z,27.87
2019-05-19T15:58:15.479Z,27.12
2019-05-19T16:00:36.242Z,26.39
2019-05-19T16:03:08.814Z,26.83
2019-05-19T16:05:41.504Z,27.46
2019-05-19T16:08:14.696Z,27.48
2019-05-19T16:10:47.366Z,26.92
2019-05-19T16:13:21.971Z,26.35
2019-05-19T16:15:53.961Z,25.92
2019-05-19T16:18:26.533Z,24.89
2019-05-19T16:20:59.216Z,24.62
2019-05-19T16:23:31.795Z,24.46
2019-05-19T16:26:04.463Z,24.34
2019-05-19T16:28:37.061Z,24.21
2019-05-19T16:31:09.787Z,23.77
2019-05-19T16:33:42.406Z,23.69
2019-05-19T16:36:15.078Z,23.39
2019-05-19T16:38:48.070Z,23.21
2019-05-19T16:41:20.327Z,23.16
2019-05-19T16:43:54.142Z,22.90
2019-05-19T16:46:26.820Z,22.85
2019-05-19T16:48:59.402Z,22.76
2019-05-19T16:51:32.020Z,22.67
2019-05-19T16:54:12.229Z,22.58
2019-05-19T16:56:45.162Z,22.45
2019-05-19T16:59:17.803Z,22.42
2019-05-19T17:01:50.485Z,22.30
2019-05-19T17:04:23.161Z,22.24
2019-05-19T17:06:56.137Z,22.18
2019-05-19T17:09:28.703Z,22.06
2019-05-19T17:12:06.708Z,22.00
2019-05-19T17:14:38.285Z,21.89
2019-05-19T17:17:11.665Z,21.80
2019-05-19T17:19:45.460Z,21.61
2019-05-19T17:22:18.141Z,21.56
2019-05-19T17:24:50.719Z,21.49
2019-05-19T17:27:23.400Z,21.39
2019-05-19T17:29:55.944Z,21.31
2019-05-19T17:32:28.664Z,21.26
2019-05-19T17:35:01.246Z,21.20
2019-05-19T17:37:33.910Z,21.31
2019-05-19T17:40:08.843Z,21.27
2019-05-19T17:42:43.288Z,21.25
2019-05-19T17:45:15.950Z,21.06
2019-05-19T17:47:53.002Z,21.01
2019-05-19T17:50:35.993Z,21.03
2019-05-19T17:53:08.374Z,20.93
2019-05-19T17:55:42.223Z,20.81
2019-05-19T17:58:14.911Z,20.76
2019-05-19T18:00:47.477Z,20.64
2019-05-19T18:03:20.168Z,20.54
2019-05-19T18:05:52.752Z,20.44
2019-05-19T18:08:25.827Z,20.37
2019-05-19T18:10:58.436Z,20.41
2019-05-19T18:13:31.317Z,20.33
2019-05-19T18:16:04.271Z,20.25
2019-05-19T18:18:36.948Z,20.21
2019-05-19T18:21:09.553Z,20.14
2019-05-19T18:23:42.208Z,20.18
2019-05-19T18:26:14.896Z,20.11
2019-05-19T18:28:47.565Z,20.01
2019-05-19T18:31:20.143Z,19.93
2019-05-19T18:33:53.284Z,19.77
2019-05-19T18:36:25.911Z,19.71
2019-05-19T18:38:58.539Z,19.51
2019-05-19T18:41:31.170Z,19.41
2019-05-19T18:44:04.053Z,19.31
2019-05-19T18:46:36.735Z,19.19
2019-05-19T18:49:09.432Z,19.18
2019-05-19T18:51:41.989Z,19.07
2019-05-19T18:54:14.671Z,18.92
2019-05-19T18:56:50.588Z,18.82
2019-05-19T18:59:21.921Z,18.68
2019-05-19T19:01:54.541Z,18.59
2019-05-19T19:04:27.232Z,18.53
2019-05-19T19:06:59.862Z,18.37
2019-05-19T19:09:32.893Z,18.31
2019-05-19T19:12:05.736Z,18.20
2019-05-19T19:14:38.462Z,18.16
2019-05-19T19:17:11.139Z,18.09
2019-05-19T19:19:43.849Z,17.99
2019-05-19T19:22:16.496Z,17.94
2019-05-19T19:24:49.188Z,17.96
2019-05-19T19:27:21.846Z,18.02
2019-05-19T19:30:03.345Z,18.01
2019-05-19T19:32:30.994Z,18.00
2019-05-19T19:35:04.380Z,17.95
2019-05-19T19:37:36.993Z,17.89
2019-05-19T19:40:12.914Z,17.83
2019-05-19T19:42:45.515Z,17.79
2019-05-19T19:45:18.191Z,17.68
2019-05-19T19:47:50.761Z,17.60
2019-05-19T19:50:23.441Z,17.52
2019-05-19T19:52:56.018Z,17.45
2019-05-19T19:55:28.696Z,17.37
2019-05-19T19:58:01.316Z,17.35
2019-05-19T20:00:42.340Z,17.31
2019-05-19T20:03:15.532Z,17.31
2019-05-19T20:05:49.748Z,17.27
2019-05-19T20:08:22.336Z,17.20
2019-05-19T20:10:55.427Z,17.15
2019-05-19T20:13:28.010Z,17.12
2019-05-19T20:16:00.618Z,17.05
2019-05-19T20:18:33.366Z,17.01
2019-05-19T20:21:05.617Z,16.94
2019-05-19T20:23:38.300Z,16.92
2019-05-19T20:26:10.984Z,16.91
2019-05-19T20:28:43.193Z,16.88
2019-05-19T20:31:15.830Z,16.88
2019-05-19T20:33:48.713Z,16.80
2019-05-19T20:36:21.405Z,16.76
2019-05-19T20:38:53.966Z,16.74
2019-05-19T20:41:26.642Z,16.68
2019-05-19T20:43:59.220Z,16.61
2019-05-19T20:46:31.905Z,16.56
2019-05-19T20:49:05.696Z,16.52
2019-05-19T20:51:38.387Z,16.46
2019-05-19T20:54:10.961Z,16.44
2019-05-19T20:56:43.640Z,16.42
2019-05-19T20:59:16.229Z,16.39
2019-05-19T21:01:49.131Z,16.38
2019-05-19T21:04:21.783Z,16.35
2019-05-19T21:06:54.463Z,16.36
2019-05-19T21:09:27.038Z,16.26
2019-05-19T21:11:59.818Z,16.23
2019-05-19T21:14:32.028Z,16.20
2019-05-19T21:17:04.671Z,16.19
2019-05-19T21:19:37.251Z,16.17
2019-05-19T21:22:11.059Z,16.09
2019-05-19T21:24:43.542Z,16.02
2019-05-19T21:27:16.204Z,16.00
2019-05-19T21:29:48.776Z,15.96
2019-05-19T21:32:22.175Z,15.88
2019-05-19T21:34:54.381Z,15.83
2019-05-19T21:37:27.023Z,15.80
2019-05-19T21:39:59.612Z,15.75
2019-05-19T21:42:31.972Z,15.75
2019-05-19T21:45:04.912Z,15.69
2019-05-19T21:47:37.540Z,15.63
2019-05-19T21:50:11.180Z,15.56
2019-05-19T21:52:43.821Z,15.52
2019-05-19T21:55:16.031Z,15.51
2019-05-19T21:57:48.771Z,15.47
2019-05-19T22:00:23.596Z,15.43
2019-05-19T22:02:57.434Z,15.38
2019-05-19T22:05:29.631Z,15.31
2019-05-19T22:08:06.857Z,15.31
2019-05-19T22:10:39.437Z,15.30
2019-05-19T22:13:12.134Z,15.31
2019-05-19T22:15:44.788Z,15.30
2019-05-19T22:18:17.466Z,15.26
2019-05-19T22:20:50.099Z,15.24
2019-05-19T22:23:22.730Z,15.17
2019-05-19T22:25:54.955Z,15.12
2019-05-19T22:28:27.669Z,15.07
2019-05-19T22:31:00.286Z,15.05
2019-05-19T22:33:32.929Z,15.02
2019-05-19T22:36:05.562Z,15.01
2019-05-19T22:38:38.178Z,15.01
2019-05-19T22:41:10.755Z,14.97
2019-05-19T22:43:43.439Z,14.94
2019-05-19T22:46:16.124Z,14.92
2019-05-19T22:48:48.807Z,14.91
2019-05-19T22:51:22.840Z,14.88
2019-05-19T22:53:55.781Z,14.82
2019-05-19T22:56:28.367Z,14.74
2019-05-19T22:59:00.942Z,14.78
2019-05-19T23:01:33.728Z,14.83
2019-05-19T23:04:06.647Z,14.84
2019-05-19T23:06:39.391Z,14.80
2019-05-19T23:09:12.379Z,14.74
2019-05-19T23:11:44.592Z,14.75
2019-05-19T23:14:18.373Z,14.63
2019-05-19T23:16:52.163Z,14.58
2019-05-19T23:19:24.835Z,14.60
2019-05-19T23:21:57.517Z,14.56
2019-05-19T23:24:30.297Z,14.55
2019-05-19T23:27:02.874Z,14.60
2019-05-19T23:29:35.692Z,14.60
2019-05-19T23:32:08.247Z,14.56
2019-05-19T23:34:40.910Z,14.48
2019-05-19T23:37:13.594Z,14.42
2019-05-19T23:39:46.276Z,14.39
2019-05-19T23:42:18.847Z,14.38
2019-05-19T23:44:52.652Z,14.34
2019-05-19T23:47:25.334Z,14.30
2019-05-19T23:49:58.025Z,14.28
2019-05-19T23:52:30.907Z,14.24
2019-05-19T23:55:03.986Z,14.21
2019-05-19T23:57:36.592Z,14.17
